createdAt,value
2017-05-20T00:01:01.529Z,7.10
2017-05-20T00:03:29.835Z,7.18
2017-05-20T00:05:58.182Z,6.64
2017-05-20T00:08:26.482Z,6.60
2017-05-20T00:10:54.788Z,6.32
2017-05-20T00:13:23.125Z,5.98
2017-05-20T00:15:52.194Z,6.46
2017-05-20T00:18:20.539Z,7.18
2017-05-20T00:20:49.609Z,9.34
2017-05-20T00:23:17.922Z,9.88
2017-05-20T00:25:46.306Z,10.36
2017-05-20T00:28:14.623Z,10.14
2017-05-20T00:30:42.938Z,10.70
2017-05-20T00:33:11.297Z,11.08
2017-05-20T00:35:39.618Z,10.74
2017-05-20T00:38:07.933Z,10.84
2017-05-20T00:40:36.306Z,7.26
2017-05-20T00:43:04.811Z,7.12
2017-05-20T00:45:33.197Z,7.00
2017-05-20T00:48:02.321Z,7.44
2017-05-20T00:50:30.651Z,7.56
2017-05-20T00:52:58.972Z,5.12
2017-05-20T00:55:27.335Z,5.76
2017-05-20T00:57:55.637Z,5.24
2017-05-20T01:00:23.949Z,4.78
2017-05-20T01:02:52.442Z,4.56
2017-05-20T01:05:20.750Z,5.16
2017-05-20T01:07:49.063Z,4.14
2017-05-20T01:10:17.412Z,4.16
2017-05-20T01:12:45.723Z,4.38
2017-05-20T01:15:14.026Z,4.82
2017-05-20T01:17:42.398Z,4.32
2017-05-20T01:20:10.702Z,4.34
2017-05-20T01:22:39.005Z,4.32
2017-05-20T01:25:07.731Z,4.48
2017-05-20T01:27:36.037Z,4.36
2017-05-20T01:30:04.385Z,3.86
2017-05-20T01:32:32.734Z,4.34
2017-05-20T01:35:01.051Z,4.38
2017-05-20T01:37:29.356Z,4.76
2017-05-20T01:39:57.718Z,4.48
2017-05-20T01:42:26.019Z,4.56
2017-05-20T01:44:54.330Z,4.54
2017-05-20T01:47:22.689Z,4.94
2017-05-20T01:49:50.993Z,4.62
2017-05-20T01:52:19.298Z,4.14
2017-05-20T01:54:47.673Z,3.98
2017-05-20T01:57:15.977Z,4.60
2017-05-20T01:59:44.286Z,4.10
2017-05-20T02:02:13.406Z,4.58
2017-05-20T02:04:41.708Z,3.62
2017-05-20T02:07:10.066Z,4.00
2017-05-20T02:09:38.413Z,4.18
2017-05-20T02:12:07.486Z,5.20
2017-05-20T02:14:35.867Z,4.70
2017-05-20T02:17:04.242Z,5.18
2017-05-20T02:19:32.571Z,5.04
2017-05-20T02:22:00.878Z,5.34
2017-05-20T02:24:29.985Z,4.88
2017-05-20T02:26:59.055Z,4.54
2017-05-20T02:29:27.362Z,4.02
2017-05-20T02:31:55.713Z,4.50
2017-05-20T02:34:24.017Z,4.74
2017-05-20T02:36:53.094Z,4.98
2017-05-20T02:39:21.457Z,3.96
2017-05-20T02:41:49.763Z,4.30
2017-05-20T02:44:18.078Z,4.42
2017-05-20T02:46:46.425Z,4.62
2017-05-20T02:49:14.733Z,5.30
2017-05-20T02:51:43.801Z,5.78
2017-05-20T02:54:12.147Z,5.06
2017-05-20T02:56:40.457Z,5.20
2017-05-20T02:59:08.772Z,4.98
2017-05-20T03:01:37.184Z,4.70
2017-05-20T03:04:05.465Z,4.08
2017-05-20T03:06:34.537Z,4.46
2017-05-20T03:09:03.658Z,4.68
2017-05-20T03:11:31.966Z,5.16
2017-05-20T03:14:01.037Z,5.76
2017-05-20T03:16:29.413Z,5.18
2017-05-20T03:18:57.722Z,5.30
2017-05-20T03:21:26.029Z,5.88
2017-05-20T03:23:54.382Z,5.32
2017-05-20T03:26:23.458Z,6.30
2017-05-20T03:28:51.769Z,4.70
2017-05-20T03:31:20.117Z,5.78
2017-05-20T03:33:48.431Z,5.72
2017-05-20T03:36:16.782Z,5.20
2017-05-20T03:38:45.148Z,5.60
2017-05-20T03:41:14.221Z,4.92
2017-05-20T03:43:42.526Z,5.42
2017-05-20T03:46:10.870Z,5.92
2017-05-20T03:48:39.942Z,5.22
2017-05-20T03:51:09.070Z,6.60
2017-05-20T03:53:37.398Z,5.62
2017-05-20T03:56:05.697Z,5.98
2017-05-20T03:58:34.051Z,5.06
2017-05-20T04:01:03.125Z,5.58
2017-05-20T04:03:31.441Z,5.46
2017-05-20T04:05:59.809Z,5.74
2017-05-20T04:08:28.878Z,5.60
2017-05-20T04:10:57.186Z,5.94
2017-05-20T04:13:25.553Z,5.78
2017-05-20T04:15:53.852Z,6.20
2017-05-20T04:18:22.166Z,6.36
2017-05-20T04:20:50.526Z,5.94
2017-05-20T04:23:18.833Z,5.82
2017-05-20T04:25:47.149Z,6.08
2017-05-20T04:28:15.491Z,5.96
2017-05-20T04:30:43.799Z,6.28
2017-05-20T04:33:12.933Z,6.44
2017-05-20T04:35:41.250Z,6.66
2017-05-20T04:38:10.338Z,5.20
2017-05-20T04:40:39.710Z,5.78
2017-05-20T04:43:08.020Z,5.70
2017-05-20T04:45:36.333Z,5.54
2017-05-20T04:48:04.681Z,5.78
2017-05-20T04:50:32.995Z,6.58
2017-05-20T04:53:01.296Z,5.46
2017-05-20T04:55:29.642Z,5.92
2017-05-20T04:57:57.953Z,6.24
2017-05-20T05:00:26.263Z,6.72
2017-05-20T05:02:54.617Z,5.70
2017-05-20T05:05:22.921Z,7.02
2017-05-20T05:07:51.996Z,5.56
2017-05-20T05:10:21.113Z,6.58
2017-05-20T05:12:49.421Z,7.90
2017-05-20T05:15:18.498Z,6.76
2017-05-20T05:17:46.853Z,6.54
2017-05-20T05:20:15.925Z,6.80
2017-05-20T05:22:44.242Z,7.08
2017-05-20T05:25:12.585Z,6.48
2017-05-20T05:27:40.893Z,7.34
2017-05-20T05:30:09.964Z,7.52
2017-05-20T05:32:38.729Z,7.28
2017-05-20T05:35:07.046Z,7.92
2017-05-20T05:37:35.359Z,6.46
2017-05-20T05:40:03.716Z,7.48
2017-05-20T05:42:32.788Z,7.00
2017-05-20T05:45:01.092Z,7.76
2017-05-20T05:47:29.442Z,6.60
2017-05-20T05:49:58.530Z,7.12
2017-05-20T05:52:27.654Z,7.20
2017-05-20T05:54:56.730Z,7.98
2017-05-20T05:57:25.869Z,7.20
2017-05-20T05:59:54.938Z,6.98
2017-05-20T06:02:24.049Z,7.54
2017-05-20T06:04:52.845Z,7.42
2017-05-20T06:07:21.158Z,7.08
2017-05-20T06:09:50.271Z,7.72
2017-05-20T06:12:19.349Z,8.08
2017-05-20T06:14:47.649Z,7.82
2017-05-20T06:17:16.761Z,7.80
2017-05-20T06:19:45.841Z,7.40
2017-05-20T06:22:14.142Z,6.90
2017-05-20T06:24:42.481Z,6.36
2017-05-20T06:27:10.821Z,8.48
2017-05-20T06:29:39.134Z,6.86
2017-05-20T06:32:07.435Z,7.20
2017-05-20T06:34:36.571Z,6.26
2017-05-20T06:37:04.869Z,5.80
2017-05-20T06:39:33.199Z,5.98
2017-05-20T06:42:01.543Z,6.58
2017-05-20T06:44:29.867Z,7.02
2017-05-20T06:46:58.178Z,7.66
2017-05-20T06:49:26.757Z,7.10
2017-05-20T06:51:55.070Z,6.32
2017-05-20T06:54:23.369Z,7.70
2017-05-20T06:56:51.710Z,7.34
2017-05-20T06:59:20.046Z,6.94
2017-05-20T07:01:48.357Z,6.66
2017-05-20T07:04:16.707Z,6.76
2017-05-20T07:06:45.017Z,6.88
2017-05-20T07:09:13.335Z,7.16
2017-05-20T07:11:41.693Z,7.16
2017-05-20T07:14:10.760Z,7.18
2017-05-20T07:16:39.438Z,8.16
2017-05-20T07:19:07.787Z,7.58
2017-05-20T07:21:36.089Z,7.84
2017-05-20T07:24:05.173Z,7.24
2017-05-20T07:26:33.559Z,6.64
2017-05-20T07:29:01.866Z,6.20
2017-05-20T07:31:30.170Z,6.48
2017-05-20T07:33:58.524Z,5.80
2017-05-20T07:36:26.825Z,5.50
2017-05-20T07:38:55.127Z,6.82
2017-05-20T07:41:23.501Z,5.64
2017-05-20T07:43:52.569Z,4.74
2017-05-20T07:46:20.871Z,5.46
2017-05-20T07:48:49.813Z,5.44
2017-05-20T07:51:18.882Z,5.40
2017-05-20T07:53:47.186Z,5.42
2017-05-20T07:56:16.302Z,5.72
2017-05-20T07:58:44.649Z,5.94
2017-05-20T08:01:12.957Z,6.04
2017-05-20T08:03:41.395Z,5.58
2017-05-20T08:06:09.735Z,6.08
2017-05-20T08:08:38.046Z,5.54
2017-05-20T08:11:06.386Z,5.30
2017-05-20T08:13:34.689Z,5.08
2017-05-20T08:16:03.765Z,5.44
2017-05-20T08:18:32.128Z,4.82
2017-05-20T08:21:00.479Z,4.18
2017-05-20T08:23:28.789Z,3.90
2017-05-20T08:25:57.155Z,3.84
2017-05-20T08:28:25.462Z,4.00
2017-05-20T08:30:54.538Z,3.92
2017-05-20T08:33:22.891Z,3.56
2017-05-20T08:35:51.205Z,3.70
2017-05-20T08:38:19.505Z,3.74
2017-05-20T08:40:48.637Z,2.98
2017-05-20T08:43:16.935Z,3.00
2017-05-20T08:45:45.237Z,3.02
2017-05-20T08:48:14.367Z,3.02
2017-05-20T08:50:42.678Z,2.76
2017-05-20T08:53:10.986Z,3.42
2017-05-20T08:55:40.111Z,2.64
2017-05-20T08:58:08.413Z,3.10
2017-05-20T09:00:36.717Z,2.92
2017-05-20T09:03:05.053Z,3.16
2017-05-20T09:05:33.350Z,2.42
2017-05-20T09:08:01.658Z,2.86
2017-05-20T09:10:30.011Z,2.32
2017-05-20T09:12:58.316Z,2.16
2017-05-20T09:15:27.382Z,2.92
2017-05-20T09:17:56.497Z,2.98
2017-05-20T09:20:24.826Z,2.50
2017-05-20T09:22:53.899Z,2.24
2017-05-20T09:25:23.017Z,2.52
2017-05-20T09:27:51.325Z,2.56
2017-05-20T09:30:20.398Z,2.62
2017-05-20T09:32:49.538Z,2.44
2017-05-20T09:35:17.845Z,1.94
2017-05-20T09:37:46.147Z,1.66
2017-05-20T09:40:14.510Z,2.26
2017-05-20T09:42:43.071Z,1.88
2017-05-20T09:45:11.407Z,2.28
2017-05-20T09:47:39.771Z,2.52
2017-05-20T09:50:08.078Z,3.08
2017-05-20T09:52:36.382Z,2.88
2017-05-20T09:55:05.494Z,3.00
2017-05-20T09:57:33.883Z,2.16
2017-05-20T10:00:02.966Z,2.24
2017-05-20T10:02:31.313Z,2.28
2017-05-20T10:04:59.617Z,2.48
2017-05-20T10:07:27.930Z,2.82
2017-05-20T10:09:57.054Z,2.54
2017-05-20T10:12:25.371Z,2.46
2017-05-20T10:14:53.687Z,2.24
2017-05-20T10:17:22.045Z,1.92
2017-05-20T10:19:50.427Z,1.52
2017-05-20T10:22:18.731Z,1.40
2017-05-20T10:24:47.846Z,1.14
2017-05-20T10:27:16.155Z,1.44
2017-05-20T10:29:45.233Z,1.46
2017-05-20T10:32:13.586Z,1.24
2017-05-20T10:34:41.981Z,2.56
2017-05-20T10:37:11.058Z,1.56
2017-05-20T10:39:39.510Z,1.46
2017-05-20T10:42:07.821Z,1.66
2017-05-20T10:44:36.126Z,1.58
2017-05-20T10:47:04.469Z,1.82
2017-05-20T10:49:32.790Z,1.80
2017-05-20T10:52:01.089Z,1.92
2017-05-20T10:54:30.211Z,1.80
2017-05-20T10:56:58.526Z,1.54
2017-05-20T10:59:26.831Z,1.56
2017-05-20T11:01:55.180Z,1.10
2017-05-20T11:04:24.251Z,1.66
2017-05-20T11:06:52.558Z,1.40
2017-05-20T11:09:21.678Z,1.40
2017-05-20T11:11:50.767Z,1.84
2017-05-20T11:14:19.079Z,1.44
2017-05-20T11:16:47.434Z,1.58
2017-05-20T11:19:15.805Z,1.68
2017-05-20T11:21:44.137Z,1.28
2017-05-20T11:24:13.246Z,1.42
2017-05-20T11:26:41.553Z,1.40
2017-05-20T11:29:09.862Z,1.80
2017-05-20T11:31:39.012Z,1.88
2017-05-20T11:34:07.344Z,1.34
2017-05-20T11:36:36.450Z,1.58
2017-05-20T11:39:04.802Z,1.20
2017-05-20T11:41:33.517Z,1.48
2017-05-20T11:44:01.821Z,1.22
2017-05-20T11:46:30.935Z,1.20
2017-05-20T11:48:59.361Z,1.12
2017-05-20T11:51:28.453Z,1.00
2017-05-20T11:53:56.807Z,0.86
2017-05-20T11:56:25.140Z,0.92
2017-05-20T11:58:53.451Z,0.94
2017-05-20T12:01:21.800Z,0.84
2017-05-20T12:03:50.119Z,1.08
2017-05-20T12:06:19.202Z,1.10
2017-05-20T12:08:49.279Z,0.86
2017-05-20T12:11:17.631Z,1.34
2017-05-20T12:13:45.947Z,1.02
2017-05-20T12:16:15.074Z,1.14
2017-05-20T12:18:43.783Z,1.10
2017-05-20T12:21:12.154Z,1.10
2017-05-20T12:23:41.258Z,1.10
2017-05-20T12:26:09.593Z,1.34
2017-05-20T12:28:37.905Z,1.30
2017-05-20T12:31:06.270Z,1.42
2017-05-20T12:33:34.585Z,1.20
2017-05-20T12:36:02.893Z,1.48
2017-05-20T12:38:31.242Z,1.40
2017-05-20T12:40:59.550Z,1.24
2017-05-20T12:43:27.858Z,1.32
2017-05-20T12:45:56.209Z,1.44
2017-05-20T12:48:24.523Z,1.36
2017-05-20T12:50:52.836Z,1.60
2017-05-20T12:53:21.209Z,1.32
2017-05-20T12:55:49.517Z,1.70
2017-05-20T12:58:17.831Z,1.10
2017-05-20T13:00:47.541Z,1.70
2017-05-20T13:03:15.849Z,1.26
2017-05-20T13:05:44.157Z,1.28
2017-05-20T13:08:12.514Z,1.42
2017-05-20T13:10:40.825Z,1.34
2017-05-20T13:13:09.130Z,1.30
2017-05-20T13:15:37.474Z,1.20
2017-05-20T13:18:05.787Z,1.30
2017-05-20T13:20:34.099Z,1.54
2017-05-20T13:23:02.450Z,0.80
2017-05-20T13:25:30.757Z,1.10
2017-05-20T13:27:59.074Z,1.08
2017-05-20T13:30:27.446Z,1.20
2017-05-20T13:32:55.760Z,1.20
2017-05-20T13:35:24.063Z,1.02
2017-05-20T13:37:52.410Z,1.08
2017-05-20T13:40:20.708Z,1.60
2017-05-20T13:42:49.018Z,1.32
2017-05-20T13:45:18.160Z,0.94
2017-05-20T13:47:46.466Z,1.20
2017-05-20T13:50:14.774Z,0.86
2017-05-20T13:52:43.342Z,1.12
2017-05-20T13:55:11.730Z,1.10
2017-05-20T13:57:40.088Z,0.70
2017-05-20T14:00:08.442Z,1.40
2017-05-20T14:02:36.760Z,0.78
2017-05-20T14:05:05.075Z,1.20
2017-05-20T14:07:33.433Z,1.00
2017-05-20T14:10:01.750Z,1.24
2017-05-20T14:12:30.061Z,1.14
2017-05-20T14:14:58.415Z,0.82
2017-05-20T14:17:26.735Z,0.96
2017-05-20T14:19:55.801Z,1.06
2017-05-20T14:22:24.154Z,1.08
2017-05-20T14:24:52.457Z,2.18
2017-05-20T14:27:20.771Z,1.16
2017-05-20T14:29:49.110Z,1.14
2017-05-20T14:32:17.420Z,2.96
2017-05-20T14:34:46.050Z,1.20
2017-05-20T14:37:14.395Z,2.08
2017-05-20T14:39:42.712Z,1.20
2017-05-20T14:42:11.019Z,1.20
2017-05-20T14:44:39.367Z,0.90
2017-05-20T14:47:07.874Z,0.90
2017-05-20T14:49:36.191Z,1.06
2017-05-20T14:52:04.538Z,1.18
2017-05-20T14:54:32.847Z,1.08
2017-05-20T14:57:01.149Z,0.90
2017-05-20T14:59:29.567Z,0.94
2017-05-20T15:01:57.873Z,1.50
2017-05-20T15:04:26.178Z,0.90
2017-05-20T15:06:54.538Z,0.94
2017-05-20T15:09:22.838Z,1.00
2017-05-20T15:11:51.150Z,1.28
2017-05-20T15:14:20.350Z,1.30
2017-05-20T15:16:48.654Z,1.20
2017-05-20T15:19:16.956Z,1.08
2017-05-20T15:21:45.301Z,1.08
2017-05-20T15:24:13.625Z,1.40
2017-05-20T15:26:41.941Z,0.84
2017-05-20T15:29:10.304Z,0.96
2017-05-20T15:31:38.610Z,1.02
2017-05-20T15:34:06.923Z,1.14
2017-05-20T15:36:35.274Z,0.70
2017-05-20T15:39:03.578Z,1.00
2017-05-20T15:41:31.876Z,1.10
2017-05-20T15:44:00.987Z,0.94
2017-05-20T15:46:29.294Z,0.96
2017-05-20T15:48:57.599Z,0.90
2017-05-20T15:51:25.966Z,0.82
2017-05-20T15:53:54.294Z,1.10
2017-05-20T15:56:22.603Z,1.10
2017-05-20T15:58:50.946Z,1.20
2017-05-20T16:01:19.263Z,0.92
2017-05-20T16:03:47.563Z,1.08
2017-05-20T16:06:15.997Z,1.10
2017-05-20T16:08:44.496Z,1.16
2017-05-20T16:11:12.802Z,1.06
2017-05-20T16:13:41.143Z,0.94
2017-05-20T16:16:09.444Z,0.84
2017-05-20T16:18:37.810Z,1.40
2017-05-20T16:21:06.121Z,1.32
2017-05-20T16:23:34.421Z,0.96
2017-05-20T16:26:02.769Z,0.80
2017-05-20T16:28:31.075Z,1.02
2017-05-20T16:30:59.382Z,1.06
2017-05-20T16:33:28.495Z,1.18
2017-05-20T16:35:56.803Z,1.10
2017-05-20T16:38:25.107Z,1.22
2017-05-20T16:40:53.449Z,0.94
2017-05-20T16:43:21.760Z,1.04
2017-05-20T16:45:50.072Z,1.08
2017-05-20T16:48:19.180Z,1.12
2017-05-20T16:50:48.255Z,1.16
2017-05-20T16:53:16.592Z,1.42
2017-05-20T16:55:44.936Z,1.02
2017-05-20T16:58:13.241Z,1.18
2017-05-20T17:00:41.541Z,1.52
2017-05-20T17:03:09.898Z,0.84
2017-05-20T17:05:38.209Z,1.00
2017-05-20T17:08:07.277Z,1.10
2017-05-20T17:10:35.626Z,1.14
2017-05-20T17:13:03.926Z,1.20
2017-05-20T17:15:33.001Z,1.74
2017-05-20T17:18:02.459Z,0.80
2017-05-20T17:20:30.772Z,1.14
2017-05-20T17:22:59.841Z,1.00
2017-05-20T17:25:28.187Z,1.12
2017-05-20T17:27:56.497Z,1.10
2017-05-20T17:30:25.569Z,1.22
2017-05-20T17:32:54.705Z,1.22
2017-05-20T17:35:23.018Z,1.24
2017-05-20T17:37:51.344Z,1.34
2017-05-20T17:40:19.693Z,1.24
2017-05-20T17:42:48.078Z,0.82
2017-05-20T17:45:16.381Z,0.80
2017-05-20T17:47:45.503Z,1.00
2017-05-20T17:50:13.897Z,1.24
2017-05-20T17:52:42.987Z,2.52
2017-05-20T17:55:12.168Z,2.02
2017-05-20T17:57:40.469Z,1.18
2017-05-20T18:00:09.541Z,1.74
2017-05-20T18:02:38.654Z,0.88
2017-05-20T18:05:06.963Z,1.38
2017-05-20T18:07:36.029Z,1.34
2017-05-20T18:10:04.404Z,0.84
2017-05-20T18:12:32.718Z,1.02
2017-05-20T18:15:01.018Z,1.32
2017-05-20T18:17:30.141Z,1.38
2017-05-20T18:19:58.452Z,1.32
2017-05-20T18:22:26.758Z,1.20
2017-05-20T18:24:55.087Z,0.88
2017-05-20T18:27:23.403Z,1.00
2017-05-20T18:29:51.767Z,1.30
2017-05-20T18:32:20.070Z,1.30
2017-05-20T18:34:49.415Z,1.24
2017-05-20T18:37:18.525Z,1.14
2017-05-20T18:39:46.843Z,0.96
2017-05-20T18:42:15.926Z,1.18
2017-05-20T18:44:45.053Z,1.44
2017-05-20T18:47:13.363Z,1.48
2017-05-20T18:49:41.665Z,0.94
2017-05-20T18:52:10.004Z,1.00
2017-05-20T18:54:38.353Z,1.46
2017-05-20T18:57:06.987Z,1.58
2017-05-20T18:59:35.287Z,1.22
2017-05-20T19:02:04.355Z,1.40
2017-05-20T19:04:32.725Z,1.76
2017-05-20T19:07:01.037Z,0.98
2017-05-20T19:09:29.345Z,1.12
2017-05-20T19:11:57.702Z,1.20
2017-05-20T19:14:26.008Z,1.00
2017-05-20T19:16:54.319Z,1.18
2017-05-20T19:19:23.431Z,1.30
2017-05-20T19:21:51.739Z,1.22
2017-05-20T19:24:20.810Z,1.40
2017-05-20T19:26:49.307Z,1.40
2017-05-20T19:29:18.374Z,1.46
2017-05-20T19:31:46.678Z,2.18
2017-05-20T19:34:15.039Z,1.90
2017-05-20T19:36:43.350Z,1.92
2017-05-20T19:39:11.679Z,1.12
2017-05-20T19:41:40.030Z,3.52
2017-05-20T19:44:09.098Z,2.50
2017-05-20T19:46:37.413Z,1.80
2017-05-20T19:49:05.769Z,8.04
2017-05-20T19:51:34.082Z,2.34
2017-05-20T19:54:02.394Z,1.86
2017-05-20T19:56:30.733Z,1.70
2017-05-20T19:58:59.041Z,1.52
2017-05-20T20:01:27.350Z,2.26
2017-05-20T20:03:55.710Z,1.82
2017-05-20T20:06:24.009Z,1.94
2017-05-20T20:08:52.319Z,2.12
2017-05-20T20:11:20.699Z,2.22
2017-05-20T20:13:49.009Z,1.80
2017-05-20T20:16:18.085Z,1.48
2017-05-20T20:18:46.433Z,2.50
2017-05-20T20:21:14.745Z,2.88
2017-05-20T20:23:43.821Z,3.62
2017-05-20T20:26:12.498Z,3.86
2017-05-20T20:28:40.809Z,3.24
2017-05-20T20:31:09.110Z,3.84
2017-05-20T20:33:37.454Z,2.94
2017-05-20T20:36:05.775Z,2.88
2017-05-20T20:38:34.090Z,4.18
2017-05-20T20:41:02.445Z,3.50
2017-05-20T20:43:30.751Z,3.76
2017-05-20T20:45:59.822Z,4.20
2017-05-20T20:48:28.206Z,4.98
2017-05-20T20:50:56.507Z,3.98
2017-05-20T20:53:24.882Z,4.20
2017-05-20T20:55:53.230Z,4.42
2017-05-20T20:58:21.545Z,3.96
2017-05-20T21:00:50.691Z,3.92
2017-05-20T21:03:19.040Z,4.90
2017-05-20T21:05:47.350Z,3.92
2017-05-20T21:08:15.662Z,4.34
2017-05-20T21:10:44.018Z,3.52
2017-05-20T21:13:12.327Z,3.80
2017-05-20T21:15:41.414Z,4.00
2017-05-20T21:18:09.798Z,9.08
2017-05-20T21:20:38.096Z,5.18
2017-05-20T21:23:06.405Z,6.18
2017-05-20T21:25:34.785Z,7.20
2017-05-20T21:28:03.098Z,6.86
2017-05-20T21:30:31.474Z,6.76
2017-05-20T21:32:59.789Z,5.04
2017-05-20T21:35:28.105Z,4.28
2017-05-20T21:37:56.418Z,4.20
2017-05-20T21:40:24.770Z,4.82
2017-05-20T21:42:53.079Z,4.40
2017-05-20T21:45:21.386Z,5.20
2017-05-20T21:47:49.729Z,4.26
2017-05-20T21:50:18.037Z,4.18
2017-05-20T21:52:46.389Z,3.80
2017-05-20T21:55:14.700Z,4.36
2017-05-20T21:57:43.773Z,4.00
2017-05-20T22:00:12.133Z,4.08
2017-05-20T22:02:40.446Z,4.22
2017-05-20T22:05:09.524Z,4.36
2017-05-20T22:07:37.877Z,4.60
2017-05-20T22:10:06.182Z,4.18
2017-05-20T22:12:34.489Z,4.08
2017-05-20T22:15:02.837Z,4.36
2017-05-20T22:17:31.137Z,3.32
2017-05-20T22:19:59.441Z,4.48
2017-05-20T22:22:28.886Z,4.34
2017-05-20T22:24:57.201Z,3.62
2017-05-20T22:27:25.508Z,3.68
2017-05-20T22:29:53.849Z,3.20
2017-05-20T22:32:22.153Z,4.00
2017-05-20T22:34:50.699Z,4.64
2017-05-20T22:37:19.819Z,4.50
2017-05-20T22:39:48.126Z,3.66
2017-05-20T22:42:16.427Z,4.14
2017-05-20T22:44:44.784Z,3.66
2017-05-20T22:47:13.085Z,4.24
2017-05-20T22:49:41.393Z,3.50
2017-05-20T22:52:09.757Z,4.30
2017-05-20T22:54:38.830Z,4.36
2017-05-20T22:57:07.137Z,3.10
2017-05-20T22:59:35.480Z,3.72
2017-05-20T23:02:04.553Z,3.52
2017-05-20T23:04:33.673Z,3.00
2017-05-20T23:07:01.982Z,3.42
2017-05-20T23:09:30.286Z,3.96
2017-05-20T23:11:58.626Z,3.90
2017-05-20T23:14:26.932Z,3.06
2017-05-20T23:16:55.241Z,3.34
2017-05-20T23:19:24.352Z,3.06
2017-05-20T23:21:52.651Z,3.12
2017-05-20T23:24:20.964Z,3.82
2017-05-20T23:26:49.798Z,3.30
2017-05-20T23:29:18.115Z,3.56
2017-05-20T23:31:47.187Z,3.94
2017-05-20T23:34:15.561Z,4.24
2017-05-20T23:36:43.875Z,3.68
2017-05-20T23:39:12.187Z,3.20
2017-05-20T23:41:41.298Z,3.34
2017-05-20T23:44:09.597Z,3.80
2017-05-20T23:46:37.910Z,4.68
2017-05-20T23:49:06.265Z,4.00
2017-05-20T23:51:34.569Z,4.56
2017-05-20T23:54:02.882Z,3.70
2017-05-20T23:56:31.225Z,3.72
2017-05-20T23:59:00.293Z,3.50
